createdAt,value
2018-07-16T00:01:11.417Z,17.22
2018-07-16T00:04:10.676Z,17.11
2018-07-16T00:07:10.634Z,16.85
2018-07-16T00:10:10.606Z,16.62
2018-07-16T00:13:10.565Z,16.48
2018-07-16T00:16:10.545Z,16.27
2018-07-16T00:19:10.497Z,16.33
2018-07-16T00:22:11.421Z,16.22
2018-07-16T00:25:10.427Z,16.31
2018-07-16T00:28:10.498Z,16.11
2018-07-16T00:31:10.362Z,16.01
2018-07-16T00:34:10.350Z,16.20
2018-07-16T00:37:10.281Z,16.33
2018-07-16T00:40:10.280Z,16.11
2018-07-16T00:43:10.223Z,15.89
2018-07-16T00:46:10.217Z,15.67
2018-07-16T00:49:10.148Z,15.70
2018-07-16T00:52:10.432Z,15.78
2018-07-16T00:55:10.082Z,15.76
2018-07-16T00:58:10.113Z,15.82
2018-07-16T01:01:10.011Z,15.75
2018-07-16T01:04:10.028Z,15.78
2018-07-16T01:07:09.955Z,15.82
2018-07-16T01:10:09.926Z,15.76
2018-07-16T01:13:09.875Z,15.61
2018-07-16T01:16:09.942Z,15.59
2018-07-16T01:19:09.814Z,15.52
2018-07-16T01:22:09.790Z,15.51
2018-07-16T01:25:09.747Z,15.33
2018-07-16T01:28:09.736Z,15.05
2018-07-16T01:31:09.688Z,14.84
2018-07-16T01:34:09.648Z,14.78
2018-07-16T01:37:09.614Z,14.74
2018-07-16T01:40:09.590Z,14.68
2018-07-16T01:43:09.549Z,14.67
2018-07-16T01:46:09.524Z,14.43
2018-07-16T01:49:09.470Z,14.46
2018-07-16T01:52:09.459Z,14.54
2018-07-16T01:55:09.395Z,14.43
2018-07-16T01:58:09.421Z,14.32
2018-07-16T02:01:09.330Z,14.39
2018-07-16T02:04:09.327Z,14.47
2018-07-16T02:07:09.267Z,14.43
2018-07-16T02:10:09.243Z,14.43
2018-07-16T02:13:09.190Z,14.39
2018-07-16T02:16:09.182Z,14.37
2018-07-16T02:19:09.131Z,14.31
2018-07-16T02:22:09.127Z,14.21
2018-07-16T02:25:09.066Z,14.34
2018-07-16T02:28:09.041Z,14.28
2018-07-16T02:31:09.002Z,14.19
2018-07-16T02:34:08.969Z,13.91
2018-07-16T02:37:08.927Z,14.16
2018-07-16T02:40:08.926Z,14.06
2018-07-16T02:43:08.861Z,13.98
2018-07-16T02:46:08.843Z,13.81
2018-07-16T02:49:08.796Z,13.71
2018-07-16T02:52:08.775Z,13.62
2018-07-16T02:55:08.714Z,13.65
2018-07-16T02:58:08.761Z,13.73
2018-07-16T03:01:08.661Z,13.92
2018-07-16T03:04:08.634Z,13.87
2018-07-16T03:07:08.590Z,13.83
2018-07-16T03:10:08.565Z,13.69
2018-07-16T03:13:08.518Z,13.67
2018-07-16T03:16:08.513Z,13.55
2018-07-16T03:19:08.448Z,13.47
2018-07-16T03:22:08.416Z,13.54
2018-07-16T03:25:08.382Z,13.52
2018-07-16T03:28:08.382Z,13.36
2018-07-16T03:31:08.314Z,13.51
2018-07-16T03:34:08.287Z,13.43
2018-07-16T03:37:08.252Z,13.49
2018-07-16T03:40:08.217Z,13.38
2018-07-16T03:43:08.184Z,13.56
2018-07-16T03:46:08.152Z,13.46
2018-07-16T03:49:08.112Z,13.51
2018-07-16T03:52:08.076Z,13.44
2018-07-16T03:55:08.039Z,13.79
2018-07-16T03:58:08.101Z,14.52
2018-07-16T04:01:07.969Z,15.09
2018-07-16T04:04:07.954Z,15.63
2018-07-16T04:07:07.904Z,16.25
2018-07-16T04:10:07.885Z,16.74
2018-07-16T04:13:07.838Z,17.25
2018-07-16T04:16:07.810Z,17.70
2018-07-16T04:19:07.768Z,17.95
2018-07-16T04:22:07.752Z,18.59
2018-07-16T04:25:07.702Z,19.23
2018-07-16T04:28:07.672Z,19.70
2018-07-16T04:31:07.635Z,19.95
2018-07-16T04:34:07.628Z,20.12
2018-07-16T04:37:07.658Z,20.54
2018-07-16T04:40:07.536Z,21.06
2018-07-16T04:43:07.501Z,21.32
2018-07-16T04:46:07.482Z,22.04
2018-07-16T04:49:07.432Z,22.34
2018-07-16T04:52:07.400Z,22.57
2018-07-16T04:55:07.365Z,22.71
2018-07-16T04:58:07.338Z,23.64
2018-07-16T05:01:07.289Z,23.87
2018-07-16T05:04:07.290Z,23.58
2018-07-16T05:07:07.242Z,24.26
2018-07-16T05:10:07.213Z,24.85
2018-07-16T05:13:07.158Z,25.35
2018-07-16T05:16:07.136Z,25.80
2018-07-16T05:19:07.104Z,26.18
2018-07-16T05:22:07.073Z,26.15
2018-07-16T05:25:07.028Z,26.49
2018-07-16T05:28:07.011Z,26.49
2018-07-16T05:31:06.969Z,26.83
2018-07-16T05:34:06.941Z,27.26
2018-07-16T05:37:06.993Z,27.54
2018-07-16T05:40:06.881Z,27.23
2018-07-16T05:43:06.828Z,27.79
2018-07-16T05:46:06.817Z,27.62
2018-07-16T05:49:06.761Z,26.64
2018-07-16T05:52:06.900Z,26.47
2018-07-16T05:55:06.701Z,27.09
2018-07-16T05:58:06.699Z,27.43
2018-07-16T06:01:06.629Z,27.95
2018-07-16T06:04:06.628Z,28.70
2018-07-16T06:07:06.566Z,29.23
2018-07-16T06:10:06.543Z,29.65
2018-07-16T06:13:06.498Z,29.56
2018-07-16T06:16:06.479Z,29.41
2018-07-16T06:19:06.447Z,29.63
2018-07-16T06:22:06.447Z,29.55
2018-07-16T06:25:06.368Z,30.11
2018-07-16T06:28:06.393Z,30.80
2018-07-16T06:31:06.309Z,31.02
2018-07-16T06:34:06.303Z,30.31
2018-07-16T06:37:06.238Z,30.71
2018-07-16T06:40:06.264Z,30.94
2018-07-16T06:43:06.177Z,31.17
2018-07-16T06:46:06.159Z,31.45
2018-07-16T06:49:06.213Z,31.65
2018-07-16T06:52:06.111Z,31.67
2018-07-16T06:55:06.105Z,31.84
2018-07-16T06:58:06.034Z,32.20
2018-07-16T07:01:06.004Z,32.30
2018-07-16T07:04:05.970Z,32.98
2018-07-16T07:07:05.944Z,32.80
2018-07-16T07:10:05.954Z,32.76
2018-07-16T07:13:05.885Z,32.79
2018-07-16T07:16:05.923Z,32.85
2018-07-16T07:19:05.809Z,33.52
2018-07-16T07:22:05.813Z,34.14
2018-07-16T07:25:05.767Z,33.87
2018-07-16T07:28:05.771Z,33.43
2018-07-16T07:31:05.698Z,33.97
2018-07-16T07:34:05.690Z,34.08
2018-07-16T07:37:05.658Z,34.95
2018-07-16T07:40:05.657Z,34.80
2018-07-16T07:43:05.597Z,34.14
2018-07-16T07:46:05.579Z,34.13
2018-07-16T07:49:05.520Z,34.94
2018-07-16T07:52:05.526Z,34.76
2018-07-16T07:55:05.848Z,34.01
2018-07-16T07:58:05.447Z,33.78
2018-07-16T08:01:05.410Z,33.01
2018-07-16T08:04:05.404Z,32.64
2018-07-16T08:07:05.461Z,33.65
2018-07-16T08:10:05.413Z,34.69
2018-07-16T08:13:05.303Z,34.23
2018-07-16T08:16:05.281Z,33.63
2018-07-16T08:19:05.238Z,34.88
2018-07-16T08:22:05.231Z,33.98
2018-07-16T08:25:05.195Z,34.54
2018-07-16T08:28:05.206Z,35.64
2018-07-16T08:31:05.123Z,34.92
2018-07-16T08:34:05.124Z,35.08
2018-07-16T08:37:05.081Z,36.06
2018-07-16T08:40:05.054Z,36.04
2018-07-16T08:43:05.025Z,34.64
2018-07-16T08:46:05.009Z,35.06
2018-07-16T08:49:04.984Z,34.32
2018-07-16T08:52:04.945Z,35.07
2018-07-16T08:55:04.912Z,36.04
2018-07-16T08:58:04.905Z,34.11
2018-07-16T09:01:04.932Z,34.73
2018-07-16T09:04:04.888Z,33.07
2018-07-16T09:07:04.850Z,33.86
2018-07-16T09:10:04.807Z,34.07
2018-07-16T09:13:04.834Z,35.01
2018-07-16T09:16:05.392Z,35.67
2018-07-16T09:19:04.743Z,35.77
2018-07-16T09:22:04.683Z,36.76
2018-07-16T09:25:04.745Z,36.30
2018-07-16T09:28:04.671Z,36.41
2018-07-16T09:31:04.618Z,36.92
2018-07-16T09:34:04.586Z,37.02
2018-07-16T09:37:04.609Z,35.85
2018-07-16T09:40:04.527Z,34.94
2018-07-16T09:43:04.605Z,35.52
2018-07-16T09:46:04.481Z,35.23
2018-07-16T09:49:04.443Z,35.25
2018-07-16T09:52:04.431Z,35.62
2018-07-16T09:55:04.467Z,35.79
2018-07-16T09:58:04.742Z,36.39
2018-07-16T10:01:04.386Z,35.69
2018-07-16T10:04:04.349Z,36.42
2018-07-16T10:07:04.299Z,36.56
2018-07-16T10:10:04.279Z,36.08
2018-07-16T10:13:04.244Z,36.64
2018-07-16T10:16:04.237Z,35.99
2018-07-16T10:19:04.214Z,36.80
2018-07-16T10:22:04.202Z,37.32
2018-07-16T10:25:04.141Z,36.42
2018-07-16T10:28:04.284Z,37.20
2018-07-16T10:31:04.111Z,37.29
2018-07-16T10:34:04.095Z,37.21
2018-07-16T10:37:04.049Z,36.79
2018-07-16T10:40:04.097Z,36.19
2018-07-16T10:43:04.007Z,36.97
2018-07-16T10:46:04.021Z,36.91
2018-07-16T10:49:03.953Z,36.14
2018-07-16T10:52:04.016Z,36.11
2018-07-16T10:55:03.968Z,35.93
2018-07-16T10:58:03.929Z,36.64
2018-07-16T11:01:03.853Z,37.10
2018-07-16T11:04:03.914Z,36.85
2018-07-16T11:07:03.829Z,36.42
2018-07-16T11:10:03.813Z,36.90
2018-07-16T11:13:03.749Z,37.78
2018-07-16T11:16:03.978Z,37.71
2018-07-16T11:19:03.735Z,37.80
2018-07-16T11:22:03.715Z,38.60
2018-07-16T11:25:03.657Z,37.20
2018-07-16T11:28:03.696Z,36.43
2018-07-16T11:31:03.619Z,35.30
2018-07-16T11:34:03.602Z,35.70
2018-07-16T11:37:03.565Z,36.31
2018-07-16T11:40:03.566Z,36.99
2018-07-16T11:43:03.508Z,35.51
2018-07-16T11:46:03.577Z,35.21
2018-07-16T11:49:03.527Z,36.41
2018-07-16T11:52:03.447Z,37.70
2018-07-16T11:55:03.414Z,36.99
2018-07-16T11:58:03.452Z,37.77
2018-07-16T12:01:03.371Z,36.87
2018-07-16T12:04:03.368Z,37.16
2018-07-16T12:07:03.339Z,37.20
2018-07-16T12:10:03.307Z,36.30
2018-07-16T12:13:03.352Z,36.00
2018-07-16T12:16:03.266Z,35.93
2018-07-16T12:19:03.222Z,37.29
2018-07-16T12:22:03.243Z,37.23
2018-07-16T12:25:03.170Z,37.16
2018-07-16T12:28:03.190Z,36.98
2018-07-16T12:31:03.106Z,36.87
2018-07-16T12:34:03.202Z,36.90
2018-07-16T12:37:03.070Z,36.63
2018-07-16T12:40:03.063Z,37.28
2018-07-16T12:43:03.008Z,36.80
2018-07-16T12:46:03.146Z,37.71
2018-07-16T12:49:02.972Z,38.23
2018-07-16T12:52:02.994Z,36.79
2018-07-16T12:55:02.907Z,36.82
2018-07-16T12:58:02.956Z,35.89
2018-07-16T13:01:02.875Z,35.29
2018-07-16T13:04:02.857Z,35.32
2018-07-16T13:07:02.817Z,36.61
2018-07-16T13:10:02.806Z,36.51
2018-07-16T13:13:02.781Z,36.30
2018-07-16T13:16:02.822Z,36.00
2018-07-16T13:19:02.729Z,35.57
2018-07-16T13:22:02.711Z,36.31
2018-07-16T13:25:02.669Z,35.70
2018-07-16T13:28:02.695Z,35.44
2018-07-16T13:31:02.614Z,34.66
2018-07-16T13:34:02.608Z,34.92
2018-07-16T13:37:02.605Z,35.69
2018-07-16T13:40:02.574Z,36.67
2018-07-16T13:43:02.526Z,36.82
2018-07-16T13:46:02.511Z,36.11
2018-07-16T13:49:02.476Z,36.86
2018-07-16T13:52:02.472Z,36.82
2018-07-16T13:55:02.536Z,36.26
2018-07-16T13:58:02.445Z,36.38
2018-07-16T14:01:02.383Z,36.77
2018-07-16T14:04:02.447Z,36.83
2018-07-16T14:07:02.337Z,36.43
2018-07-16T14:10:02.346Z,36.67
2018-07-16T14:13:02.278Z,37.68
2018-07-16T14:16:02.322Z,36.20
2018-07-16T14:19:02.248Z,34.01
2018-07-16T14:22:02.245Z,32.99
2018-07-16T14:25:02.187Z,34.29
2018-07-16T14:28:02.187Z,35.35
2018-07-16T14:31:02.236Z,35.29
2018-07-16T14:34:02.288Z,35.86
2018-07-16T14:37:02.098Z,35.60
2018-07-16T14:40:02.154Z,36.04
2018-07-16T14:43:02.055Z,36.12
2018-07-16T14:46:02.032Z,37.13
2018-07-16T14:49:01.987Z,37.05
2018-07-16T14:52:02.102Z,36.83
2018-07-16T14:55:02.002Z,37.39
2018-07-16T14:58:02.218Z,36.92
2018-07-16T15:01:01.974Z,36.29
2018-07-16T15:04:01.876Z,36.38
2018-07-16T15:07:01.849Z,35.14
2018-07-16T15:10:01.842Z,35.44
2018-07-16T15:13:01.788Z,35.30
2018-07-16T15:16:01.762Z,35.25
2018-07-16T15:19:01.834Z,36.04
2018-07-16T15:22:01.751Z,36.65
2018-07-16T15:25:01.697Z,34.57
2018-07-16T15:28:02.100Z,35.62
2018-07-16T15:31:01.679Z,35.91
2018-07-16T15:34:01.604Z,35.28
2018-07-16T15:37:01.579Z,35.72
2018-07-16T15:40:01.558Z,36.27
2018-07-16T15:43:01.518Z,36.35
2018-07-16T15:46:01.614Z,34.51
2018-07-16T15:49:01.509Z,35.17
2018-07-16T15:52:01.482Z,36.45
2018-07-16T15:55:01.428Z,36.11
2018-07-16T15:58:01.430Z,35.13
2018-07-16T16:01:01.368Z,34.23
2018-07-16T16:04:01.384Z,33.42
2018-07-16T16:07:01.326Z,33.14
2018-07-16T16:10:01.371Z,34.29
2018-07-16T16:13:01.275Z,34.98
2018-07-16T16:16:01.293Z,35.40
2018-07-16T16:19:01.224Z,35.76
2018-07-16T16:22:01.200Z,35.10
2018-07-16T16:25:01.155Z,34.98
2018-07-16T16:28:01.138Z,35.50
2018-07-16T16:31:01.107Z,35.36
2018-07-16T16:34:01.097Z,35.37
2018-07-16T16:37:01.043Z,35.91
2018-07-16T16:40:01.087Z,33.95
2018-07-16T16:43:01.064Z,34.36
2018-07-16T16:46:00.975Z,33.58
2018-07-16T16:49:00.976Z,32.91
2018-07-16T16:52:00.916Z,33.45
2018-07-16T16:55:00.890Z,34.48
2018-07-16T16:58:00.865Z,34.81
2018-07-16T17:01:00.860Z,34.80
2018-07-16T17:04:00.817Z,35.18
2018-07-16T17:07:00.770Z,36.15
2018-07-16T17:10:00.801Z,35.07
2018-07-16T17:13:00.724Z,34.80
2018-07-16T17:16:00.694Z,34.94
2018-07-16T17:19:00.678Z,34.39
2018-07-16T17:22:00.665Z,33.70
2018-07-16T17:25:00.603Z,34.53
2018-07-16T17:28:00.603Z,34.48
2018-07-16T17:31:00.555Z,33.04
2018-07-16T17:34:00.531Z,33.83
2018-07-16T17:37:00.493Z,34.35
2018-07-16T17:40:00.509Z,35.15
2018-07-16T17:43:00.503Z,34.16
2018-07-16T17:46:00.434Z,35.14
2018-07-16T17:49:00.378Z,34.77
2018-07-16T17:52:00.361Z,34.54
2018-07-16T17:55:00.315Z,33.33
2018-07-16T17:58:00.313Z,33.22
2018-07-16T18:01:00.261Z,33.01
2018-07-16T18:04:00.239Z,32.03
2018-07-16T18:07:00.194Z,30.21
2018-07-16T18:10:00.241Z,29.74
2018-07-16T18:13:00.140Z,30.71
2018-07-16T18:16:00.123Z,31.04
2018-07-16T18:19:00.070Z,29.55
2018-07-16T18:22:00.060Z,28.82
2018-07-16T18:25:00.008Z,28.23
2018-07-16T18:27:59.994Z,27.84
2018-07-16T18:30:59.953Z,27.51
2018-07-16T18:33:59.920Z,27.05
2018-07-16T18:36:59.908Z,26.83
2018-07-16T18:39:59.860Z,26.69
2018-07-16T18:42:59.833Z,26.69
2018-07-16T18:45:59.797Z,26.59
2018-07-16T18:48:59.755Z,26.73
2018-07-16T18:51:59.729Z,26.69
2018-07-16T18:54:59.705Z,26.86
2018-07-16T18:57:59.661Z,26.57
2018-07-16T19:00:59.609Z,26.42
2018-07-16T19:03:59.601Z,26.43
2018-07-16T19:06:59.543Z,26.11
2018-07-16T19:09:59.526Z,25.87
2018-07-16T19:12:59.528Z,25.86
2018-07-16T19:15:59.487Z,25.77
2018-07-16T19:18:59.415Z,25.77
2018-07-16T19:21:59.402Z,25.67
2018-07-16T19:24:59.351Z,25.49
2018-07-16T19:27:59.321Z,25.35
2018-07-16T19:30:59.273Z,25.16
2018-07-16T19:33:59.269Z,24.80
2018-07-16T19:36:59.219Z,24.61
2018-07-16T19:39:59.204Z,24.41
2018-07-16T19:42:59.141Z,24.44
2018-07-16T19:45:59.137Z,24.10
2018-07-16T19:48:59.084Z,23.76
2018-07-16T19:51:59.070Z,23.32
2018-07-16T19:54:59.007Z,23.01
2018-07-16T19:57:59.041Z,22.84
2018-07-16T20:00:58.948Z,22.78
2018-07-16T20:03:58.983Z,22.75
2018-07-16T20:06:58.874Z,22.62
2018-07-16T20:09:58.927Z,22.20
2018-07-16T20:12:58.819Z,21.56
2018-07-16T20:15:58.814Z,21.14
2018-07-16T20:18:58.776Z,20.99
2018-07-16T20:21:58.731Z,20.90
2018-07-16T20:24:58.738Z,20.72
2018-07-16T20:27:58.651Z,20.61
2018-07-16T20:30:58.620Z,20.58
2018-07-16T20:33:58.586Z,20.33
2018-07-16T20:36:58.551Z,20.06
2018-07-16T20:39:58.524Z,20.05
2018-07-16T20:42:58.475Z,20.06
2018-07-16T20:45:58.446Z,20.30
2018-07-16T20:48:58.459Z,20.30
2018-07-16T20:51:58.420Z,20.16
2018-07-16T20:54:58.339Z,20.12
2018-07-16T20:57:58.317Z,20.09
2018-07-16T21:00:58.274Z,20.08
2018-07-16T21:03:58.258Z,20.25
2018-07-16T21:06:58.204Z,20.49
2018-07-16T21:09:58.215Z,20.69
2018-07-16T21:12:58.134Z,20.83
2018-07-16T21:15:58.124Z,20.96
2018-07-16T21:18:58.085Z,21.29
2018-07-16T21:21:58.049Z,21.90
2018-07-16T21:24:57.996Z,22.57
2018-07-16T21:27:57.985Z,22.86
2018-07-16T21:30:57.939Z,22.77
2018-07-16T21:33:57.938Z,22.67
2018-07-16T21:36:57.870Z,22.68
2018-07-16T21:39:57.868Z,22.65
2018-07-16T21:42:57.798Z,22.62
2018-07-16T21:45:58.336Z,22.65
2018-07-16T21:48:57.737Z,22.72
2018-07-16T21:51:57.717Z,22.65
2018-07-16T21:54:57.675Z,22.57
2018-07-16T21:57:57.678Z,22.65
2018-07-16T22:00:57.609Z,22.60
2018-07-16T22:03:57.675Z,22.67
2018-07-16T22:06:57.544Z,22.59
2018-07-16T22:09:57.526Z,22.53
2018-07-16T22:12:57.474Z,22.46
2018-07-16T22:15:57.458Z,22.47
2018-07-16T22:18:57.422Z,22.35
2018-07-16T22:21:57.394Z,22.39
2018-07-16T22:24:57.400Z,22.38
2018-07-16T22:27:57.322Z,22.35
2018-07-16T22:30:57.284Z,22.29
2018-07-16T22:33:57.290Z,22.23
2018-07-16T22:36:57.211Z,22.31
2018-07-16T22:39:57.196Z,22.20
2018-07-16T22:42:57.160Z,22.09
2018-07-16T22:45:57.126Z,22.16
2018-07-16T22:48:57.080Z,22.19
2018-07-16T22:51:57.086Z,22.13
2018-07-16T22:54:57.016Z,22.10
2018-07-16T22:57:56.997Z,22.16
2018-07-16T23:00:56.947Z,22.14
2018-07-16T23:03:56.930Z,22.16
2018-07-16T23:06:56.886Z,22.02
2018-07-16T23:09:56.881Z,22.16
2018-07-16T23:12:56.816Z,21.90
2018-07-16T23:15:56.805Z,21.90
2018-07-16T23:18:56.753Z,21.82
2018-07-16T23:21:56.730Z,21.79
2018-07-16T23:24:56.687Z,21.72
2018-07-16T23:27:56.664Z,21.75
2018-07-16T23:30:56.621Z,21.81
2018-07-16T23:33:56.606Z,21.82
2018-07-16T23:36:56.565Z,21.74
2018-07-16T23:39:56.538Z,21.72
2018-07-16T23:42:56.481Z,21.60
2018-07-16T23:45:56.501Z,21.56
2018-07-16T23:48:56.424Z,21.57
2018-07-16T23:51:56.425Z,21.45
2018-07-16T23:54:56.350Z,21.44
2018-07-16T23:57:56.344Z,21.16
